sensor_id;sensor_type;location;lat;lon;timestamp;pressure;altitude;pressure_sealevel;temperature;humidity
74798;BME280;63326;45.088;7.658;2024-03-29T00:01:33;97971.09;;;6.41;100.00
74798;BME280;63326;45.088;7.658;2024-03-29T00:03:59;98035.50;;;6.75;100.00
74798;BME280;63326;45.088;7.658;2024-03-29T00:06:25;98004.09;;;6.63;100.00
74798;BME280;63326;45.088;7.658;2024-03-29T00:08:51;98036.81;;;6.79;100.00
74798;BME280;63326;45.088;7.658;2024-03-29T00:11:18;97996.75;;;6.42;100.00
74798;BME280;63326;45.088;7.658;2024-03-29T00:13:50;97972.91;;;6.26;100.00
74798;BME280;63326;45.088;7.658;2024-03-29T00:16:16;98011.69;;;6.51;100.00
74798;BME280;63326;45.088;7.658;2024-03-29T00:18:42;98019.63;;;6.59;100.00
74798;BME280;63326;45.088;7.658;2024-03-29T00:21:08;98032.63;;;6.62;100.00
74798;BME280;63326;45.088;7.658;2024-03-29T00:23:35;98022.69;;;6.56;100.00
74798;BME280;63326;45.088;7.658;2024-03-29T00:26:00;98031.84;;;6.76;100.00
74798;BME280;63326;45.088;7.658;2024-03-29T00:28:27;98051.81;;;6.80;100.00
74798;BME280;63326;45.088;7.658;2024-03-29T00:30:54;98052.25;;;6.69;100.00
74798;BME280;63326;45.088;7.658;2024-03-29T00:33:20;98028.06;;;6.48;100.00
74798;BME280;63326;45.088;7.658;2024-03-29T00:35:46;98061.78;;;6.64;100.00
74798;BME280;63326;45.088;7.658;2024-03-29T00:38:12;98057.63;;;6.61;100.00
74798;BME280;63326;45.088;7.658;2024-03-29T00:40:39;98020.34;;;6.53;100.00
74798;BME280;63326;45.088;7.658;2024-03-29T00:43:05;98024.78;;;6.61;100.00
74798;BME280;63326;45.088;7.658;2024-03-29T00:45:32;98047.88;;;6.76;100.00
74798;BME280;63326;45.088;7.658;2024-03-29T00:47:59;97989.50;;;6.36;100.00
74798;BME280;63326;45.088;7.658;2024-03-29T00:50:25;97997.34;;;6.29;100.00
74798;BME280;63326;45.088;7.658;2024-03-29T00:52:51;97991.25;;;6.20;100.00
74798;BME280;63326;45.088;7.658;2024-03-29T00:55:17;97977.31;;;6.10;100.00
74798;BME280;63326;45.088;7.658;2024-03-29T00:57:44;97972.94;;;6.17;100.00
74798;BME280;63326;45.088;7.658;2024-03-29T01:00:10;98018.81;;;6.36;100.00
74798;BME280;63326;45.088;7.658;2024-03-29T01:02:36;97992.16;;;6.05;100.00
74798;BME280;63326;45.088;7.658;2024-03-29T01:05:02;98020.63;;;6.12;100.00
74798;BME280;63326;45.088;7.658;2024-03-29T01:07:31;98050.38;;;6.24;100.00
74798;BME280;63326;45.088;7.658;2024-03-29T01:09:56;98022.44;;;6.12;100.00
74798;BME280;63326;45.088;7.658;2024-03-29T01:12:23;98011.59;;;6.13;100.00
74798;BME280;63326;45.088;7.658;2024-03-29T01:14:49;97995.72;;;5.97;100.00
74798;BME280;63326;45.088;7.658;2024-03-29T01:17:16;98051.50;;;6.30;100.00
74798;BME280;63326;45.088;7.658;2024-03-29T01:19:43;98057.72;;;6.45;100.00
74798;BME280;63326;45.088;7.658;2024-03-29T01:22:09;98030.66;;;6.33;100.00
74798;BME280;63326;45.088;7.658;2024-03-29T01:24:35;98066.50;;;6.54;100.00
74798;BME280;63326;45.088;7.658;2024-03-29T01:27:01;98053.53;;;6.50;100.00
74798;BME280;63326;45.088;7.658;2024-03-29T01:29:27;98030.59;;;6.41;100.00
74798;BME280;63326;45.088;7.658;2024-03-29T01:31:53;98023.00;;;6.30;100.00
74798;BME280;63326;45.088;7.658;2024-03-29T01:34:22;98061.53;;;6.50;100.00
74798;BME280;63326;45.088;7.658;2024-03-29T01:36:48;98023.19;;;6.29;100.00
74798;BME280;63326;45.088;7.658;2024-03-29T01:39:14;98022.69;;;6.25;100.00
74798;BME280;63326;45.088;7.658;2024-03-29T01:41:41;98074.00;;;6.58;100.00
74798;BME280;63326;45.088;7.658;2024-03-29T01:44:07;98037.16;;;6.31;100.00
74798;BME280;63326;45.088;7.658;2024-03-29T01:46:35;98067.00;;;6.57;100.00
74798;BME280;63326;45.088;7.658;2024-03-29T01:49:03;98033.63;;;6.38;100.00
74798;BME280;63326;45.088;7.658;2024-03-29T01:51:31;98069.84;;;6.56;100.00
74798;BME280;63326;45.088;7.658;2024-03-29T01:53:58;98078.75;;;6.48;100.00
74798;BME280;63326;45.088;7.658;2024-03-29T01:56:24;98090.66;;;6.60;100.00
74798;BME280;63326;45.088;7.658;2024-03-29T01:58:52;98096.34;;;6.57;100.00
74798;BME280;63326;45.088;7.658;2024-03-29T02:01:21;98014.34;;;6.05;100.00
74798;BME280;63326;45.088;7.658;2024-03-29T02:03:48;98094.19;;;6.53;100.00
74798;BME280;63326;45.088;7.658;2024-03-29T02:06:19;98089.75;;;6.45;100.00
74798;BME280;63326;45.088;7.658;2024-03-29T02:08:49;98085.91;;;6.47;100.00
74798;BME280;63326;45.088;7.658;2024-03-29T02:11:17;98060.81;;;6.34;100.00
74798;BME280;63326;45.088;7.658;2024-03-29T02:13:44;98103.41;;;6.73;100.00
74798;BME280;63326;45.088;7.658;2024-03-29T02:16:25;98076.06;;;6.71;100.00
74798;BME280;63326;45.088;7.658;2024-03-29T02:18:51;97973.78;;;6.18;100.00
74798;BME280;63326;45.088;7.658;2024-03-29T02:21:17;98086.31;;;6.82;100.00
74798;BME280;63326;45.088;7.658;2024-03-29T02:23:46;98027.66;;;6.36;100.00
74798;BME280;63326;45.088;7.658;2024-03-29T02:26:13;98103.47;;;6.88;100.00
74798;BME280;63326;45.088;7.658;2024-03-29T02:28:39;98084.25;;;6.69;100.00
74798;BME280;63326;45.088;7.658;2024-03-29T02:31:05;98078.97;;;6.61;100.00
74798;BME280;63326;45.088;7.658;2024-03-29T02:33:31;98109.88;;;6.78;100.00
74798;BME280;63326;45.088;7.658;2024-03-29T02:35:57;98123.09;;;6.72;100.00
74798;BME280;63326;45.088;7.658;2024-03-29T02:38:23;98087.03;;;6.53;100.00
74798;BME280;63326;45.088;7.658;2024-03-29T02:40:49;98108.13;;;6.63;100.00
74798;BME280;63326;45.088;7.658;2024-03-29T02:43:15;98041.50;;;6.32;100.00
74798;BME280;63326;45.088;7.658;2024-03-29T02:45:44;98089.78;;;6.68;100.00
74798;BME280;63326;45.088;7.658;2024-03-29T02:48:10;98075.72;;;6.51;100.00
74798;BME280;63326;45.088;7.658;2024-03-29T02:50:36;98048.81;;;6.38;100.00
74798;BME280;63326;45.088;7.658;2024-03-29T02:53:02;98048.50;;;6.33;100.00
74798;BME280;63326;45.088;7.658;2024-03-29T02:55:28;98073.81;;;6.60;100.00
74798;BME280;63326;45.088;7.658;2024-03-29T02:57:54;98042.91;;;6.42;100.00
74798;BME280;63326;45.088;7.658;2024-03-29T03:00:20;98059.06;;;6.49;100.00
74798;BME280;63326;45.088;7.658;2024-03-29T03:02:45;98083.75;;;6.66;100.00
74798;BME280;63326;45.088;7.658;2024-03-29T03:05:11;98081.81;;;6.60;100.00
74798;BME280;63326;45.088;7.658;2024-03-29T03:07:38;98077.31;;;6.60;100.00
74798;BME280;63326;45.088;7.658;2024-03-29T03:10:23;98096.78;;;6.69;100.00
74798;BME280;63326;45.088;7.658;2024-03-29T03:13:07;98108.63;;;6.66;100.00
74798;BME280;63326;45.088;7.658;2024-03-29T03:15:33;98080.63;;;6.62;100.00
74798;BME280;63326;45.088;7.658;2024-03-29T03:17:59;98076.91;;;6.71;100.00
74798;BME280;63326;45.088;7.658;2024-03-29T03:20:27;98090.72;;;6.75;100.00
74798;BME280;63326;45.088;7.658;2024-03-29T03:22:56;98015.84;;;6.31;100.00
74798;BME280;63326;45.088;7.658;2024-03-29T03:25:24;98075.88;;;6.72;100.00
74798;BME280;63326;45.088;7.658;2024-03-29T03:27:53;98040.38;;;6.49;100.00
74798;BME280;63326;45.088;7.658;2024-03-29T03:30:19;98074.59;;;6.68;100.00
74798;BME280;63326;45.088;7.658;2024-03-29T03:32:45;98087.94;;;6.68;100.00
74798;BME280;63326;45.088;7.658;2024-03-29T03:35:12;98078.84;;;6.55;100.00
74798;BME280;63326;45.088;7.658;2024-03-29T03:37:38;98089.69;;;6.53;100.00
74798;BME280;63326;45.088;7.658;2024-03-29T03:40:04;98109.09;;;6.70;100.00
74798;BME280;63326;45.088;7.658;2024-03-29T03:42:31;98091.84;;;6.58;100.00
74798;BME280;63326;45.088;7.658;2024-03-29T03:44:57;98133.31;;;6.68;100.00
74798;BME280;63326;45.088;7.658;2024-03-29T03:47:23;98132.47;;;6.68;100.00
74798;BME280;63326;45.088;7.658;2024-03-29T03:49:49;98146.59;;;6.76;100.00
74798;BME280;63326;45.088;7.658;2024-03-29T03:52:15;98124.28;;;6.69;100.00
74798;BME280;63326;45.088;7.658;2024-03-29T03:54:41;98095.69;;;6.55;100.00
74798;BME280;63326;45.088;7.658;2024-03-29T03:57:07;98132.47;;;6.91;100.00
74798;BME280;63326;45.088;7.658;2024-03-29T03:59:33;98125.28;;;6.91;100.00
74798;BME280;63326;45.088;7.658;2024-03-29T04:01:58;98126.31;;;6.90;100.00
74798;BME280;63326;45.088;7.658;2024-03-29T04:04:24;98131.50;;;6.84;100.00
74798;BME280;63326;45.088;7.658;2024-03-29T04:06:50;98097.84;;;6.60;100.00
74798;BME280;63326;45.088;7.658;2024-03-29T04:09:16;98138.69;;;6.83;100.00
74798;BME280;63326;45.088;7.658;2024-03-29T04:11:44;98147.06;;;6.80;100.00
74798;BME280;63326;45.088;7.658;2024-03-29T04:14:10;98143.75;;;6.78;100.00
74798;BME280;63326;45.088;7.658;2024-03-29T04:16:36;98147.25;;;6.78;100.00
74798;BME280;63326;45.088;7.658;2024-03-29T04:19:02;98119.91;;;6.76;100.00
74798;BME280;63326;45.088;7.658;2024-03-29T04:21:28;98138.88;;;6.82;100.00
74798;BME280;63326;45.088;7.658;2024-03-29T04:23:54;98135.56;;;6.79;100.00
74798;BME280;63326;45.088;7.658;2024-03-29T04:26:21;98093.56;;;6.50;100.00
74798;BME280;63326;45.088;7.658;2024-03-29T04:28:47;98151.81;;;6.93;100.00
74798;BME280;63326;45.088;7.658;2024-03-29T04:31:13;98136.19;;;6.82;100.00
74798;BME280;63326;45.088;7.658;2024-03-29T04:33:39;98148.84;;;6.88;100.00
74798;BME280;63326;45.088;7.658;2024-03-29T04:36:05;98138.69;;;6.83;100.00
74798;BME280;63326;45.088;7.658;2024-03-29T04:38:32;98168.41;;;7.03;100.00
74798;BME280;63326;45.088;7.658;2024-03-29T04:40:59;98177.84;;;7.14;100.00
74798;BME280;63326;45.088;7.658;2024-03-29T04:43:28;98153.34;;;7.10;100.00
74798;BME280;63326;45.088;7.658;2024-03-29T04:46:13;98170.44;;;7.24;100.00
74798;BME280;63326;45.088;7.658;2024-03-29T04:48:40;98160.94;;;7.21;100.00
74798;BME280;63326;45.088;7.658;2024-03-29T04:51:11;98142.09;;;7.00;100.00
74798;BME280;63326;45.088;7.658;2024-03-29T04:53:38;98144.09;;;6.98;100.00
74798;BME280;63326;45.088;7.658;2024-03-29T04:56:07;98167.72;;;7.09;100.00
74798;BME280;63326;45.088;7.658;2024-03-29T04:58:33;98154.38;;;7.09;100.00
74798;BME280;63326;45.088;7.658;2024-03-29T05:00:59;98164.97;;;7.17;100.00
74798;BME280;63326;45.088;7.658;2024-03-29T05:03:26;98145.47;;;6.94;100.00
74798;BME280;63326;45.088;7.658;2024-03-29T05:05:53;98134.22;;;6.75;100.00
74798;BME280;63326;45.088;7.658;2024-03-29T05:08:19;98158.81;;;6.94;100.00
74798;BME280;63326;45.088;7.658;2024-03-29T05:10:48;98161.69;;;7.07;100.00
74798;BME280;63326;45.088;7.658;2024-03-29T05:13:14;98179.03;;;7.11;100.00
74798;BME280;63326;45.088;7.658;2024-03-29T05:15:42;98192.56;;;7.32;100.00
74798;BME280;63326;45.088;7.658;2024-03-29T05:18:09;98184.25;;;7.27;100.00
74798;BME280;63326;45.088;7.658;2024-03-29T05:20:35;98201.66;;;7.23;100.00
74798;BME280;63326;45.088;7.658;2024-03-29T05:23:02;98194.28;;;7.25;100.00
74798;BME280;63326;45.088;7.658;2024-03-29T05:25:28;98186.91;;;7.27;100.00
74798;BME280;63326;45.088;7.658;2024-03-29T05:27:53;98175.94;;;7.22;100.00
74798;BME280;63326;45.088;7.658;2024-03-29T05:30:19;98201.06;;;7.36;100.00
74798;BME280;63326;45.088;7.658;2024-03-29T05:32:46;98152.28;;;6.96;100.00
74798;BME280;63326;45.088;7.658;2024-03-29T05:35:12;98201.50;;;7.17;100.00
74798;BME280;63326;45.088;7.658;2024-03-29T05:37:39;98212.38;;;7.15;100.00
74798;BME280;63326;45.088;7.658;2024-03-29T05:40:06;98227.75;;;7.13;100.00
74798;BME280;63326;45.088;7.658;2024-03-29T05:42:33;98205.31;;;6.99;100.00
74798;BME280;63326;45.088;7.658;2024-03-29T05:45:04;98206.81;;;7.02;100.00
74798;BME280;63326;45.088;7.658;2024-03-29T05:47:32;98147.97;;;6.64;100.00
74798;BME280;63326;45.088;7.658;2024-03-29T05:49:58;98214.47;;;7.28;100.00
74798;BME280;63326;45.088;7.658;2024-03-29T05:52:24;98197.72;;;7.11;100.00
74798;BME280;63326;45.088;7.658;2024-03-29T05:54:50;98204.41;;;7.07;100.00
74798;BME280;63326;45.088;7.658;2024-03-29T05:57:17;98185.81;;;6.99;100.00
74798;BME280;63326;45.088;7.658;2024-03-29T05:59:43;98203.91;;;7.12;100.00
74798;BME280;63326;45.088;7.658;2024-03-29T06:02:09;98200.28;;;7.04;100.00
74798;BME280;63326;45.088;7.658;2024-03-29T06:04:35;98208.41;;;7.11;100.00
74798;BME280;63326;45.088;7.658;2024-03-29T06:07:03;98208.34;;;7.19;100.00
74798;BME280;63326;45.088;7.658;2024-03-29T06:09:30;98213.59;;;7.35;100.00
74798;BME280;63326;45.088;7.658;2024-03-29T06:11:59;98191.78;;;7.24;100.00
74798;BME280;63326;45.088;7.658;2024-03-29T06:14:26;98191.41;;;7.27;100.00
74798;BME280;63326;45.088;7.658;2024-03-29T06:17:11;98174.34;;;7.13;100.00
74798;BME280;63326;45.088;7.658;2024-03-29T06:19:54;98224.28;;;7.35;100.00
74798;BME280;63326;45.088;7.658;2024-03-29T06:22:22;98198.56;;;7.12;100.00
74798;BME280;63326;45.088;7.658;2024-03-29T06:24:57;98227.66;;;7.29;100.00
74798;BME280;63326;45.088;7.658;2024-03-29T06:27:25;98222.22;;;7.15;100.00
74798;BME280;63326;45.088;7.658;2024-03-29T06:29:51;98221.47;;;7.29;100.00
74798;BME280;63326;45.088;7.658;2024-03-29T06:32:18;98226.78;;;7.37;100.00
74798;BME280;63326;45.088;7.658;2024-03-29T06:34:44;98240.94;;;7.37;100.00
74798;BME280;63326;45.088;7.658;2024-03-29T06:37:11;98224.66;;;7.24;100.00
74798;BME280;63326;45.088;7.658;2024-03-29T06:39:37;98243.50;;;7.31;100.00
74798;BME280;63326;45.088;7.658;2024-03-29T06:42:03;98247.31;;;7.36;100.00
74798;BME280;63326;45.088;7.658;2024-03-29T06:44:33;98233.31;;;7.34;100.00
74798;BME280;63326;45.088;7.658;2024-03-29T06:46:59;98213.03;;;7.17;100.00
74798;BME280;63326;45.088;7.658;2024-03-29T06:49:26;98215.03;;;7.15;100.00
74798;BME280;63326;45.088;7.658;2024-03-29T06:51:52;98182.66;;;6.95;100.00
74798;BME280;63326;45.088;7.658;2024-03-29T06:54:19;98238.34;;;7.29;100.00
74798;BME280;63326;45.088;7.658;2024-03-29T06:56:53;98169.84;;;6.91;100.00
74798;BME280;63326;45.088;7.658;2024-03-29T06:59:19;98179.56;;;7.06;100.00
74798;BME280;63326;45.088;7.658;2024-03-29T07:01:52;98176.25;;;7.04;100.00
74798;BME280;63326;45.088;7.658;2024-03-29T07:04:22;98195.72;;;7.13;100.00
74798;BME280;63326;45.088;7.658;2024-03-29T07:06:51;98228.81;;;7.27;100.00
74798;BME280;63326;45.088;7.658;2024-03-29T07:09:18;98257.94;;;7.45;100.00
74798;BME280;63326;45.088;7.658;2024-03-29T07:11:49;98203.84;;;7.20;100.00
74798;BME280;63326;45.088;7.658;2024-03-29T07:14:18;98215.19;;;7.22;100.00
74798;BME280;63326;45.088;7.658;2024-03-29T07:16:46;98233.28;;;7.57;100.00
74798;BME280;63326;45.088;7.658;2024-03-29T07:19:13;98217.44;;;7.56;100.00
74798;BME280;63326;45.088;7.658;2024-03-29T07:21:45;98252.00;;;7.57;100.00
74798;BME280;63326;45.088;7.658;2024-03-29T07:24:12;98212.19;;;7.17;100.00
74798;BME280;63326;45.088;7.658;2024-03-29T07:26:38;98269.16;;;7.40;100.00
74798;BME280;63326;45.088;7.658;2024-03-29T07:29:05;98235.25;;;7.18;100.00
74798;BME280;63326;45.088;7.658;2024-03-29T07:31:33;98234.88;;;7.21;100.00
74798;BME280;63326;45.088;7.658;2024-03-29T07:34:01;98254.88;;;7.25;100.00
74798;BME280;63326;45.088;7.658;2024-03-29T07:36:27;98243.03;;;6.96;100.00
74798;BME280;63326;45.088;7.658;2024-03-29T07:38:59;98258.22;;;6.96;100.00
74798;BME280;63326;45.088;7.658;2024-03-29T07:41:25;98275.81;;;7.13;100.00
74798;BME280;63326;45.088;7.658;2024-03-29T07:43:56;98241.19;;;6.97;100.00
74798;BME280;63326;45.088;7.658;2024-03-29T07:46:31;98267.63;;;7.15;100.00
74798;BME280;63326;45.088;7.658;2024-03-29T07:48:57;98262.19;;;7.08;100.00
74798;BME280;63326;45.088;7.658;2024-03-29T07:51:23;98239.63;;;7.11;100.00
74798;BME280;63326;45.088;7.658;2024-03-29T07:53:50;98272.69;;;7.32;100.00
74798;BME280;63326;45.088;7.658;2024-03-29T07:56:19;98272.84;;;7.39;100.00
74798;BME280;63326;45.088;7.658;2024-03-29T07:58:50;98239.56;;;7.19;100.00
74798;BME280;63326;45.088;7.658;2024-03-29T08:01:21;98254.91;;;7.48;100.00
74798;BME280;63326;45.088;7.658;2024-03-29T08:03:47;98278.63;;;7.51;100.00
74798;BME280;63326;45.088;7.658;2024-03-29T08:06:16;98266.06;;;7.28;100.00
74798;BME280;63326;45.088;7.658;2024-03-29T08:08:43;98230.13;;;7.08;100.00
74798;BME280;63326;45.088;7.658;2024-03-29T08:11:10;98256.94;;;7.15;100.00
74798;BME280;63326;45.088;7.658;2024-03-29T08:13:35;98273.06;;;6.98;100.00
74798;BME280;63326;45.088;7.658;2024-03-29T08:16:01;98235.63;;;6.75;100.00
74798;BME280;63326;45.088;7.658;2024-03-29T08:18:28;98265.16;;;6.74;100.00
74798;BME280;63326;45.088;7.658;2024-03-29T08:20:55;98258.38;;;6.63;100.00
74798;BME280;63326;45.088;7.658;2024-03-29T08:23:22;98316.94;;;6.96;100.00
74798;BME280;63326;45.088;7.658;2024-03-29T08:25:48;98310.47;;;6.90;100.00
74798;BME280;63326;45.088;7.658;2024-03-29T08:28:15;98331.19;;;6.88;100.00
74798;BME280;63326;45.088;7.658;2024-03-29T08:30:41;98306.97;;;6.90;100.00
74798;BME280;63326;45.088;7.658;2024-03-29T08:33:06;98325.19;;;7.17;100.00
74798;BME280;63326;45.088;7.658;2024-03-29T08:35:33;98309.69;;;7.13;100.00
74798;BME280;63326;45.088;7.658;2024-03-29T08:38:00;98297.72;;;7.08;100.00
74798;BME280;63326;45.088;7.658;2024-03-29T08:40:28;98326.88;;;7.18;100.00
74798;BME280;63326;45.088;7.658;2024-03-29T08:42:55;98297.59;;;6.94;100.00
74798;BME280;63326;45.088;7.658;2024-03-29T08:45:21;98317.88;;;7.11;100.00
74798;BME280;63326;45.088;7.658;2024-03-29T08:47:48;98338.03;;;7.22;100.00
74798;BME280;63326;45.088;7.658;2024-03-29T08:50:14;98334.34;;;7.23;100.00
74798;BME280;63326;45.088;7.658;2024-03-29T08:52:40;98334.88;;;7.18;100.00
74798;BME280;63326;45.088;7.658;2024-03-29T08:55:07;98360.06;;;7.55;100.00
74798;BME280;63326;45.088;7.658;2024-03-29T08:57:33;98356.31;;;7.33;100.00
74798;BME280;63326;45.088;7.658;2024-03-29T09:00:00;98303.31;;;6.83;100.00
74798;BME280;63326;45.088;7.658;2024-03-29T09:02:28;98351.06;;;7.17;100.00
74798;BME280;63326;45.088;7.658;2024-03-29T09:04:54;98298.81;;;6.83;100.00
74798;BME280;63326;45.088;7.658;2024-03-29T09:07:21;98364.09;;;7.12;100.00
74798;BME280;63326;45.088;7.658;2024-03-29T09:09:49;98369.94;;;7.07;100.00
74798;BME280;63326;45.088;7.658;2024-03-29T09:12:16;98370.56;;;7.17;100.00
74798;BME280;63326;45.088;7.658;2024-03-29T09:14:45;98349.69;;;6.90;100.00
74798;BME280;63326;45.088;7.658;2024-03-29T09:17:11;98367.03;;;6.86;100.00
74798;BME280;63326;45.088;7.658;2024-03-29T09:19:39;98371.13;;;7.04;100.00
74798;BME280;63326;45.088;7.658;2024-03-29T09:22:06;98379.28;;;7.11;100.00
74798;BME280;63326;45.088;7.658;2024-03-29T09:24:33;98345.91;;;7.07;100.00
74798;BME280;63326;45.088;7.658;2024-03-29T09:27:00;98382.88;;;7.34;100.00
74798;BME280;63326;45.088;7.658;2024-03-29T09:29:26;98360.66;;;7.42;100.00
74798;BME280;63326;45.088;7.658;2024-03-29T09:31:55;98378.13;;;7.53;100.00
74798;BME280;63326;45.088;7.658;2024-03-29T09:34:21;98351.81;;;7.33;100.00
74798;BME280;63326;45.088;7.658;2024-03-29T09:36:48;98372.69;;;7.69;100.00
74798;BME280;63326;45.088;7.658;2024-03-29T09:39:15;98379.75;;;7.85;100.00
74798;BME280;63326;45.088;7.658;2024-03-29T09:41:44;98338.94;;;7.68;100.00
74798;BME280;63326;45.088;7.658;2024-03-29T09:44:10;98376.72;;;8.11;100.00
74798;BME280;63326;45.088;7.658;2024-03-29T09:46:37;98383.69;;;8.20;100.00
74798;BME280;63326;45.088;7.658;2024-03-29T09:49:06;98337.78;;;8.08;100.00
74798;BME280;63326;45.088;7.658;2024-03-29T09:51:34;98329.66;;;8.02;100.00
74798;BME280;63326;45.088;7.658;2024-03-29T09:54:01;98311.72;;;7.87;100.00
74798;BME280;63326;45.088;7.658;2024-03-29T09:56:30;98299.69;;;7.69;100.00
74798;BME280;63326;45.088;7.658;2024-03-29T09:58:56;98243.28;;;7.41;100.00
74798;BME280;63326;45.088;7.658;2024-03-29T10:01:23;98317.84;;;7.73;100.00
74798;BME280;63326;45.088;7.658;2024-03-29T10:03:50;98345.34;;;7.82;100.00
74798;BME280;63326;45.088;7.658;2024-03-29T10:06:19;98397.88;;;7.98;100.00
74798;BME280;63326;45.088;7.658;2024-03-29T10:08:46;98373.63;;;7.76;100.00
74798;BME280;63326;45.088;7.658;2024-03-29T10:11:14;98391.72;;;7.66;100.00
74798;BME280;63326;45.088;7.658;2024-03-29T10:13:45;98399.22;;;7.71;100.00
74798;BME280;63326;45.088;7.658;2024-03-29T10:16:11;98397.47;;;7.55;100.00
74798;BME280;63326;45.088;7.658;2024-03-29T10:18:40;98391.84;;;7.50;100.00
74798;BME280;63326;45.088;7.658;2024-03-29T10:21:07;98399.56;;;7.36;100.00
74798;BME280;63326;45.088;7.658;2024-03-29T10:23:35;98389.03;;;7.43;100.00
74798;BME280;63326;45.088;7.658;2024-03-29T10:26:02;98345.72;;;7.17;100.00
74798;BME280;63326;45.088;7.658;2024-03-29T10:28:32;98395.19;;;7.44;100.00
74798;BME280;63326;45.088;7.658;2024-03-29T10:31:02;98378.88;;;7.39;100.00
74798;BME280;63326;45.088;7.658;2024-03-29T10:33:33;98344.41;;;7.13;100.00
74798;BME280;63326;45.088;7.658;2024-03-29T10:36:00;98343.25;;;7.07;100.00
74798;BME280;63326;45.088;7.658;2024-03-29T10:38:27;98332.22;;;7.18;100.00
74798;BME280;63326;45.088;7.658;2024-03-29T10:40:54;98367.28;;;7.46;100.00
74798;BME280;63326;45.088;7.658;2024-03-29T10:43:20;98366.50;;;7.69;100.00
74798;BME280;63326;45.088;7.658;2024-03-29T10:45:48;98335.19;;;7.77;100.00
74798;BME280;63326;45.088;7.658;2024-03-29T10:48:16;98364.94;;;7.97;100.00
74798;BME280;63326;45.088;7.658;2024-03-29T10:50:44;98379.22;;;8.12;100.00
74798;BME280;63326;45.088;7.658;2024-03-29T10:53:12;98314.97;;;7.98;100.00
74798;BME280;63326;45.088;7.658;2024-03-29T10:55:39;98334.59;;;8.28;100.00
74798;BME280;63326;45.088;7.658;2024-03-29T10:58:05;98361.09;;;8.37;100.00
74798;BME280;63326;45.088;7.658;2024-03-29T11:00:39;98333.19;;;8.17;100.00
74798;BME280;63326;45.088;7.658;2024-03-29T11:03:23;98361.13;;;8.67;100.00
74798;BME280;63326;45.088;7.658;2024-03-29T11:05:55;98350.91;;;8.85;100.00
74798;BME280;63326;45.088;7.658;2024-03-29T11:08:23;98354.19;;;9.31;100.00
74798;BME280;63326;45.088;7.658;2024-03-29T11:10:51;98338.72;;;9.84;100.00
74798;BME280;63326;45.088;7.658;2024-03-29T11:15:55;98332.75;;;9.46;100.00
74798;BME280;63326;45.088;7.658;2024-03-29T11:18:21;98304.44;;;9.22;100.00
74798;BME280;63326;45.088;7.658;2024-03-29T11:20:50;98294.59;;;9.44;100.00
74798;BME280;63326;45.088;7.658;2024-03-29T11:23:19;98292.47;;;9.39;100.00
74798;BME280;63326;45.088;7.658;2024-03-29T11:25:51;98325.31;;;10.12;100.00
74798;BME280;63326;45.088;7.658;2024-03-29T11:30:50;98283.56;;;10.03;96.03
74798;BME280;63326;45.088;7.658;2024-03-29T11:33:44;98280.50;;;9.06;100.00
74798;BME280;63326;45.088;7.658;2024-03-29T11:36:22;98304.16;;;8.88;100.00
74798;BME280;63326;45.088;7.658;2024-03-29T11:38:57;98334.56;;;9.24;100.00
74798;BME280;63326;45.088;7.658;2024-03-29T11:41:28;98262.00;;;8.75;100.00
74798;BME280;63326;45.088;7.658;2024-03-29T11:43:57;98295.66;;;9.14;100.00
74798;BME280;63326;45.088;7.658;2024-03-29T11:46:24;98275.63;;;8.95;100.00
74798;BME280;63326;45.088;7.658;2024-03-29T11:48:51;98315.16;;;9.22;100.00
74798;BME280;63326;45.088;7.658;2024-03-29T11:51:21;98282.50;;;9.19;100.00
74798;BME280;63326;45.088;7.658;2024-03-29T11:53:48;98320.00;;;9.19;100.00
74798;BME280;63326;45.088;7.658;2024-03-29T11:56:19;98325.97;;;8.85;100.00
74798;BME280;63326;45.088;7.658;2024-03-29T11:58:46;98339.28;;;9.22;100.00
74798;BME280;63326;45.088;7.658;2024-03-29T12:01:15;98276.31;;;8.52;100.00
74798;BME280;63326;45.088;7.658;2024-03-29T12:03:43;98333.91;;;8.93;100.00
74798;BME280;63326;45.088;7.658;2024-03-29T12:06:14;98318.47;;;9.09;100.00
74798;BME280;63326;45.088;7.658;2024-03-29T12:08:40;98348.50;;;9.05;100.00
74798;BME280;63326;45.088;7.658;2024-03-29T12:11:08;98334.81;;;9.29;100.00
74798;BME280;63326;45.088;7.658;2024-03-29T12:13:34;98348.13;;;9.59;100.00
74798;BME280;63326;45.088;7.658;2024-03-29T12:16:01;98347.38;;;9.65;100.00
74798;BME280;63326;45.088;7.658;2024-03-29T12:18:27;98336.69;;;9.50;100.00
74798;BME280;63326;45.088;7.658;2024-03-29T12:20:55;98330.38;;;9.07;100.00
74798;BME280;63326;45.088;7.658;2024-03-29T12:23:21;98369.25;;;9.18;100.00
74798;BME280;63326;45.088;7.658;2024-03-29T12:25:49;98354.31;;;8.94;100.00
74798;BME280;63326;45.088;7.658;2024-03-29T12:28:17;98330.13;;;9.02;100.00
74798;BME280;63326;45.088;7.658;2024-03-29T12:30:46;98352.38;;;9.02;100.00
74798;BME280;63326;45.088;7.658;2024-03-29T12:35:43;98314.38;;;9.43;100.00
74798;BME280;63326;45.088;7.658;2024-03-29T12:38:12;98316.41;;;9.62;100.00
74798;BME280;63326;45.088;7.658;2024-03-29T12:40:41;98337.56;;;9.93;100.00
74798;BME280;63326;45.088;7.658;2024-03-29T12:43:09;98347.56;;;10.06;100.00
74798;BME280;63326;45.088;7.658;2024-03-29T12:45:35;98357.41;;;9.99;100.00
74798;BME280;63326;45.088;7.658;2024-03-29T12:48:15;98291.50;;;9.68;100.00
74798;BME280;63326;45.088;7.658;2024-03-29T12:50:44;98349.09;;;10.15;99.72
74798;BME280;63326;45.088;7.658;2024-03-29T12:53:13;98351.72;;;10.09;99.71
74798;BME280;63326;45.088;7.658;2024-03-29T12:55:41;98336.88;;;10.13;99.57
74798;BME280;63326;45.088;7.658;2024-03-29T12:58:15;98348.44;;;10.13;100.00
74798;BME280;63326;45.088;7.658;2024-03-29T13:00:43;98344.75;;;9.93;100.00
74798;BME280;63326;45.088;7.658;2024-03-29T13:03:09;98366.47;;;9.98;100.00
74798;BME280;63326;45.088;7.658;2024-03-29T13:05:39;98298.53;;;9.48;99.06
74798;BME280;63326;45.088;7.658;2024-03-29T13:08:10;98369.44;;;9.31;100.00
74798;BME280;63326;45.088;7.658;2024-03-29T13:10:40;98295.94;;;8.89;100.00